Startpagina
METAR-TAF:

METAR-TAF

Vliegvelden :

Luchthaven Rabat-Sale

Rabat, Marokko

breedte: 34-03N, lengte: 006-46W, hoogte: 84 m

Actueel weer

Dit bericht is 31 minuten geleden gemaakt, om 09:00 UTC
Wind 4 kt uit het westnoordwesten, variërend tussen het westzuidwesten en het noorden
Temperatuur 21°C
Vochtigheid 69%
Druk 1015 hPa
Zicht 10 km of meer
Gebroken wolken op 2000 ft

METAR: GMME 240900Z 30004KT 250V350 9999 BKN020 21/15 Q1015 NOSIG

Tijdstip: 10:31 (09:31 UTC)

Verwachting

Dit bericht is 4 uur en het 31 minuten geleden gemaakt, om 05:00 UTC
Verwachting geldig van 24 om 06 UTC tot 25 om 12 UTC
Wind 2 kt uit variabele richting
Zicht: 8000 m
Gebroken wolken op 1600 ft
Tijdelijke
van 24 om 08 UTC tot 24 om 18 UTC
Wind 10 kt uit het noordwesten

TAF: GMME 240500Z 2406/2512 VRB02KT 8000 BKN016 TEMPO 2408/2418 32010KT

Waarnemingen en weersverwachtingen van meer dan 4000 vliegvelden (METAR en TAF).

De beschikbare stations zijn de gele en rode punten op de kaart.

Ga met uw muis naar het station om de naam te zien.

Klik dan om waarnemingen en weersverwachtingen te zien.

kaart wijzigen: klik op de groene knoppen met een zwart kruis om in te zoomen, op de groene knop met een streepje om uit te zoomen of op de groene pijlen voor aangrenzende kaarten.


METAR-TAF: